createdAt,value
2022-12-08T00:01:33.425Z,0.05
2022-12-08T00:04:02.570Z,0.17
2022-12-08T00:06:56.547Z,-0.13
2022-12-08T00:09:26.918Z,-0.43
2022-12-08T00:12:07.721Z,-0.44
2022-12-08T00:14:46.101Z,-0.45
2022-12-08T00:17:15.874Z,-0.16
2022-12-08T00:19:44.036Z,-0.03
2022-12-08T00:22:12.848Z,-0.01
2022-12-08T00:24:45.604Z,0.14
2022-12-08T00:27:15.227Z,0.01
2022-12-08T00:29:46.140Z,0.21
2022-12-08T00:32:13.698Z,0.34
2022-12-08T00:34:42.655Z,0.44
2022-12-08T00:37:10.122Z,0.34
2022-12-08T00:39:37.683Z,0.44
2022-12-08T00:42:14.419Z,-0.43
2022-12-08T00:44:44.294Z,0.15
2022-12-08T00:47:13.236Z,0.24
2022-12-08T00:49:40.817Z,0.16
2022-12-08T00:52:08.562Z,0.32
2022-12-08T00:54:36.385Z,0.36
2022-12-08T00:57:04.067Z,-0.15
2022-12-08T00:59:31.614Z,0.15
2022-12-08T01:01:59.151Z,-0.37
2022-12-08T01:04:26.675Z,-0.11
2022-12-08T01:06:54.124Z,-0.44
2022-12-08T01:09:21.696Z,-0.03
2022-12-08T01:11:50.585Z,0.18
2022-12-08T01:14:18.142Z,-0.11
2022-12-08T01:16:45.821Z,0.02
2022-12-08T01:19:15.587Z,0.23
2022-12-08T01:21:45.031Z,0.24
2022-12-08T01:24:20.474Z,0.30
2022-12-08T01:26:49.524Z,0.29
2022-12-08T01:29:18.013Z,0.33
2022-12-08T01:31:45.535Z,0.21
2022-12-08T01:34:13.197Z,0.20
2022-12-08T01:36:42.188Z,0.30
2022-12-08T01:39:15.406Z,0.23
2022-12-08T01:41:43.868Z,-0.32
2022-12-08T01:44:11.348Z,-0.69
2022-12-08T01:46:40.798Z,-0.80
2022-12-08T01:49:13.609Z,-0.43
2022-12-08T01:51:56.405Z,-0.21
2022-12-08T01:54:28.798Z,-0.25
2022-12-08T01:57:03.560Z,-0.17
2022-12-08T01:59:36.243Z,-0.06
2022-12-08T02:02:03.982Z,-0.11
2022-12-08T02:04:31.522Z,-0.02
2022-12-08T02:07:02.506Z,-0.14
2022-12-08T02:09:34.067Z,-0.07
2022-12-08T02:12:01.576Z,-0.10
2022-12-08T02:14:29.152Z,-0.14
2022-12-08T02:17:17.784Z,-0.24
2022-12-08T02:20:22.427Z,-0.20
2022-12-08T02:23:08.812Z,-0.33
2022-12-08T02:26:05.288Z,-0.34
2022-12-08T02:28:44.527Z,-0.13
2022-12-08T02:31:46.253Z,0.09
2022-12-08T02:34:36.478Z,-0.37
2022-12-08T02:37:17.301Z,0.06
2022-12-08T02:39:56.820Z,-0.28
2022-12-08T02:42:35.184Z,-0.04
2022-12-08T02:45:14.745Z,-0.11
2022-12-08T02:47:43.433Z,0.04
2022-12-08T02:50:12.201Z,-0.15
2022-12-08T02:52:47.802Z,0.01
2022-12-08T02:55:23.037Z,0.22
2022-12-08T02:58:02.441Z,0.51
2022-12-08T03:00:41.314Z,0.58
2022-12-08T03:03:19.318Z,0.58
2022-12-08T03:06:32.914Z,0.84
2022-12-08T03:09:08.671Z,0.97
2022-12-08T03:12:01.146Z,0.70
2022-12-08T03:14:30.867Z,0.68
2022-12-08T03:17:00.121Z,0.77
2022-12-08T03:19:32.999Z,0.87
2022-12-08T03:22:03.510Z,0.79
2022-12-08T03:24:34.997Z,1.09
2022-12-08T03:27:04.332Z,1.07
2022-12-08T03:29:33.080Z,1.10
2022-12-08T03:32:22.759Z,1.18
2022-12-08T03:34:51.628Z,1.14
2022-12-08T03:37:20.190Z,1.09
2022-12-08T03:39:48.352Z,1.14
2022-12-08T03:42:15.823Z,0.85
2022-12-08T03:44:43.314Z,1.19
2022-12-08T03:47:10.772Z,1.09
2022-12-08T03:49:38.536Z,0.69
2022-12-08T03:52:06.013Z,1.14
2022-12-08T03:54:33.578Z,1.29
2022-12-08T03:57:01.087Z,1.41
2022-12-08T03:59:28.799Z,1.51
2022-12-08T04:01:56.347Z,1.47
2022-12-08T04:04:24.034Z,1.54
2022-12-08T04:06:51.540Z,0.90
2022-12-08T04:09:19.178Z,0.61
2022-12-08T04:11:46.686Z,0.92
2022-12-08T04:14:14.296Z,1.33
2022-12-08T04:16:41.979Z,1.48
2022-12-08T04:19:09.535Z,1.57
2022-12-08T04:21:37.077Z,1.57
2022-12-08T04:24:04.731Z,1.55
2022-12-08T04:26:32.271Z,1.80
2022-12-08T04:28:59.715Z,1.92
2022-12-08T04:31:27.353Z,0.76
2022-12-08T04:33:54.902Z,0.19
2022-12-08T04:36:22.476Z,-0.15
2022-12-08T04:38:50.053Z,1.29
2022-12-08T04:41:17.556Z,1.58
2022-12-08T04:43:45.068Z,1.70
2022-12-08T04:46:12.886Z,1.51
2022-12-08T04:48:41.371Z,1.29
2022-12-08T04:51:17.101Z,2.06
2022-12-08T04:53:46.855Z,2.16
2022-12-08T04:56:19.180Z,1.76
2022-12-08T04:58:46.746Z,0.52
2022-12-08T05:01:14.832Z,0.29
2022-12-08T05:03:42.425Z,0.27
2022-12-08T05:06:12.675Z,0.22
2022-12-08T05:08:41.491Z,0.23
2022-12-08T05:11:10.636Z,0.23
2022-12-08T05:13:38.178Z,0.30
2022-12-08T05:16:10.753Z,0.34
2022-12-08T05:18:39.990Z,0.04
2022-12-08T05:21:08.485Z,1.18
2022-12-08T05:23:36.287Z,1.56
2022-12-08T05:26:04.119Z,0.49
2022-12-08T05:28:46.868Z,0.31
2022-12-08T05:31:15.665Z,0.32
2022-12-08T05:33:44.800Z,0.23
2022-12-08T05:36:14.481Z,0.10
2022-12-08T05:38:42.975Z,0.31
2022-12-08T05:41:15.054Z,0.48
2022-12-08T05:43:42.523Z,0.48
2022-12-08T05:46:10.432Z,0.62
2022-12-08T05:48:38.315Z,0.71
2022-12-08T05:51:09.499Z,0.67
2022-12-08T05:53:36.898Z,0.69
2022-12-08T05:56:04.692Z,2.01
2022-12-08T05:58:32.271Z,2.24
2022-12-08T06:00:59.713Z,2.31
2022-12-08T06:03:27.235Z,2.50
2022-12-08T06:05:54.948Z,2.39
2022-12-08T06:08:22.548Z,2.41
2022-12-08T06:10:50.164Z,2.61
2022-12-08T06:13:17.695Z,2.70
2022-12-08T06:15:45.256Z,2.33
2022-12-08T06:18:13.366Z,2.44
2022-12-08T06:20:41.006Z,2.58
2022-12-08T06:23:08.486Z,1.30
2022-12-08T06:25:36.171Z,0.79
2022-12-08T06:28:06.148Z,0.77
2022-12-08T06:30:33.906Z,0.77
2022-12-08T06:33:01.396Z,0.80
2022-12-08T06:35:28.844Z,0.87
2022-12-08T06:37:56.435Z,0.91
2022-12-08T06:40:24.042Z,0.89
2022-12-08T06:42:51.466Z,1.00
2022-12-08T06:45:19.011Z,1.22
2022-12-08T06:47:46.509Z,1.17
2022-12-08T06:50:14.861Z,1.18
2022-12-08T06:52:54.189Z,1.19
2022-12-08T06:55:50.831Z,1.21
2022-12-08T06:58:11.844Z,1.28
2022-12-08T07:00:40.488Z,1.21
2022-12-08T07:03:09.355Z,1.16
2022-12-08T07:05:38.262Z,1.01
2022-12-08T07:08:08.304Z,1.20
2022-12-08T07:10:36.301Z,1.45
2022-12-08T07:13:05.775Z,1.47
2022-12-08T07:15:33.799Z,1.44
2022-12-08T07:18:01.285Z,1.51
2022-12-08T07:20:28.929Z,1.60
2022-12-08T07:22:56.425Z,1.76
2022-12-08T07:25:24.142Z,1.52
2022-12-08T07:27:52.691Z,1.79
2022-12-08T07:30:20.601Z,1.76
2022-12-08T07:32:48.049Z,1.65
2022-12-08T07:35:15.628Z,1.91
2022-12-08T07:37:43.113Z,2.05
2022-12-08T07:40:11.362Z,1.57
2022-12-08T07:42:38.776Z,1.60
2022-12-08T07:45:07.650Z,2.17
2022-12-08T07:47:35.172Z,2.27
2022-12-08T07:50:03.004Z,3.29
2022-12-08T07:52:31.028Z,4.49
2022-12-08T07:54:58.537Z,4.85
2022-12-08T07:57:25.996Z,5.77
2022-12-08T07:59:53.452Z,5.78
2022-12-08T08:02:24.996Z,5.85
2022-12-08T08:04:54.323Z,5.76
2022-12-08T08:07:21.858Z,5.79
2022-12-08T08:09:49.444Z,6.10
2022-12-08T08:12:32.904Z,5.43
2022-12-08T08:15:01.877Z,5.57
2022-12-08T08:17:30.152Z,4.96
2022-12-08T08:19:57.817Z,5.53
2022-12-08T08:22:28.589Z,5.52
2022-12-08T08:24:55.985Z,4.72
2022-12-08T08:27:23.484Z,5.52
2022-12-08T08:29:51.757Z,5.05
2022-12-08T08:32:19.783Z,5.61
2022-12-08T08:34:47.187Z,4.92
2022-12-08T08:37:14.864Z,5.53
2022-12-08T08:39:43.138Z,5.89
2022-12-08T08:42:10.622Z,5.89
2022-12-08T08:44:39.009Z,6.13
2022-12-08T08:47:06.615Z,6.53
2022-12-08T08:49:34.153Z,6.61
2022-12-08T08:52:04.740Z,7.00
2022-12-08T08:54:33.129Z,6.84
2022-12-08T08:57:01.529Z,6.82
2022-12-08T08:59:29.104Z,7.06
2022-12-08T09:01:56.767Z,7.00
2022-12-08T09:04:25.686Z,6.81
2022-12-08T09:06:53.298Z,7.01
2022-12-08T09:09:20.959Z,7.34
2022-12-08T09:11:48.706Z,7.18
2022-12-08T09:14:16.227Z,7.07
2022-12-08T09:16:44.127Z,7.34
2022-12-08T09:19:11.582Z,6.25
2022-12-08T09:21:40.186Z,7.02
2022-12-08T09:24:10.543Z,6.26
2022-12-08T09:26:38.053Z,6.53
2022-12-08T09:29:05.607Z,6.17
2022-12-08T09:31:33.383Z,6.76
2022-12-08T09:34:00.957Z,6.86
2022-12-08T09:36:28.514Z,6.63
2022-12-08T09:38:56.237Z,6.85
2022-12-08T09:41:35.917Z,6.68
2022-12-08T09:44:38.902Z,7.23
2022-12-08T09:47:16.242Z,7.28
2022-12-08T09:49:50.616Z,6.97
2022-12-08T09:52:26.600Z,7.24
2022-12-08T09:54:58.873Z,6.96
2022-12-08T09:57:26.974Z,7.79
2022-12-08T10:00:01.209Z,7.90
2022-12-08T10:02:30.493Z,7.29
2022-12-08T10:04:59.319Z,6.97
2022-12-08T10:07:43.724Z,6.73
2022-12-08T10:10:39.667Z,7.20
2022-12-08T10:13:36.559Z,7.35
2022-12-08T10:16:04.129Z,6.99
2022-12-08T10:18:34.049Z,6.56
2022-12-08T10:21:18.819Z,6.97
2022-12-08T10:23:49.991Z,7.79
2022-12-08T10:26:20.128Z,8.07
2022-12-08T10:28:48.766Z,7.84
2022-12-08T10:31:24.829Z,7.65
2022-12-08T10:34:14.208Z,7.29
2022-12-08T10:37:00.787Z,7.06
2022-12-08T10:39:40.106Z,7.13
2022-12-08T10:42:15.626Z,7.28
2022-12-08T10:45:04.288Z,8.17
2022-12-08T10:47:37.750Z,7.28
2022-12-08T10:50:10.478Z,7.33
2022-12-08T10:52:40.283Z,7.65
2022-12-08T10:55:19.734Z,8.21
2022-12-08T10:57:50.860Z,8.34
2022-12-08T11:00:22.034Z,8.99
2022-12-08T11:02:55.847Z,7.29
2022-12-08T11:05:28.076Z,8.02
2022-12-08T11:07:56.724Z,7.80
2022-12-08T11:10:36.927Z,7.76
2022-12-08T11:13:07.340Z,7.74
2022-12-08T11:15:39.483Z,7.95
2022-12-08T11:18:10.484Z,7.80
2022-12-08T11:20:41.807Z,7.41
2022-12-08T11:23:21.193Z,7.32
2022-12-08T11:25:50.627Z,7.96
2022-12-08T11:28:25.424Z,7.76
2022-12-08T11:31:16.354Z,8.07
2022-12-08T11:33:45.690Z,7.96
2022-12-08T11:36:15.630Z,7.82
2022-12-08T11:38:50.554Z,8.30
2022-12-08T11:41:53.584Z,7.76
2022-12-08T11:44:39.127Z,7.80
2022-12-08T11:47:40.646Z,8.56
2022-12-08T11:50:25.685Z,8.36
2022-12-08T11:52:53.170Z,8.34
2022-12-08T11:55:26.741Z,7.99
2022-12-08T11:57:57.192Z,8.00
2022-12-08T12:00:24.769Z,8.43
2022-12-08T12:03:04.653Z,8.24
2022-12-08T12:06:13.225Z,8.20
2022-12-08T12:09:08.946Z,7.73
2022-12-08T12:12:15.911Z,7.86
2022-12-08T12:15:11.443Z,7.69
2022-12-08T12:17:45.054Z,7.30
2022-12-08T12:20:29.649Z,7.37
2022-12-08T12:23:18.259Z,7.46
2022-12-08T12:25:59.263Z,7.33
2022-12-08T12:28:31.645Z,7.51
2022-12-08T12:31:12.230Z,7.75
2022-12-08T12:33:39.827Z,7.33
2022-12-08T12:36:10.055Z,7.76
2022-12-08T12:39:01.526Z,7.46
2022-12-08T12:41:34.514Z,7.88
2022-12-08T12:44:13.935Z,7.71
2022-12-08T12:46:41.431Z,7.50
2022-12-08T12:49:43.549Z,7.52
2022-12-08T12:52:17.008Z,7.74
2022-12-08T12:54:50.433Z,7.59
2022-12-08T12:57:20.689Z,7.21
2022-12-08T12:59:55.239Z,7.38
2022-12-08T13:02:28.938Z,7.35
2022-12-08T13:05:07.237Z,7.45
2022-12-08T13:07:43.691Z,7.67
2022-12-08T13:10:19.777Z,7.18
2022-12-08T13:13:21.795Z,7.52
2022-12-08T13:15:56.903Z,7.22
2022-12-08T13:18:36.350Z,7.42
2022-12-08T13:21:05.785Z,7.31
2022-12-08T13:23:48.647Z,7.26
2022-12-08T13:26:24.772Z,6.85
2022-12-08T13:29:04.160Z,6.82
2022-12-08T13:31:51.621Z,7.16
2022-12-08T13:34:42.283Z,6.84
2022-12-08T13:37:13.462Z,6.88
2022-12-08T13:39:43.438Z,7.11
2022-12-08T13:42:19.561Z,6.88
2022-12-08T13:48:23.289Z,6.54
2022-12-08T13:55:12.954Z,6.50
2022-12-08T13:57:26.875Z,6.49
2022-12-08T13:59:54.438Z,6.07
2022-12-08T14:02:29.875Z,6.73
2022-12-08T14:07:47.396Z,7.01
2022-12-08T14:10:23.278Z,6.88
2022-12-08T14:13:03.144Z,6.86
2022-12-08T14:15:38.157Z,6.58
2022-12-08T14:18:21.301Z,6.45
2022-12-08T14:23:51.183Z,6.82
2022-12-08T14:26:18.642Z,6.37
2022-12-08T14:28:46.484Z,6.41
2022-12-08T14:31:14.622Z,5.63
2022-12-08T14:33:42.999Z,6.37
2022-12-08T14:36:12.626Z,6.57
2022-12-08T14:38:40.170Z,6.10
2022-12-08T14:41:11.526Z,6.28
2022-12-08T14:43:40.944Z,6.35
2022-12-08T14:46:23.113Z,5.99
2022-12-08T14:48:51.108Z,6.41
2022-12-08T14:51:21.486Z,6.56
2022-12-08T14:54:00.120Z,6.18
2022-12-08T14:56:50.366Z,6.14
2022-12-08T14:59:20.824Z,6.28
2022-12-08T15:01:51.450Z,6.07
2022-12-08T15:04:23.489Z,6.03
2022-12-08T15:06:58.525Z,6.07
2022-12-08T15:09:34.896Z,6.12
2022-12-08T15:12:15.777Z,6.09
2022-12-08T15:15:04.559Z,6.11
2022-12-08T15:17:40.587Z,6.51
2022-12-08T15:20:55.543Z,6.46
2022-12-08T15:23:25.602Z,6.28
2022-12-08T15:25:54.538Z,6.32
2022-12-08T15:28:29.658Z,6.70
2022-12-08T15:30:58.334Z,5.86
2022-12-08T15:33:26.565Z,6.04
2022-12-08T15:35:54.183Z,5.77
2022-12-08T15:38:27.121Z,6.10
2022-12-08T15:40:56.434Z,6.27
2022-12-08T15:43:24.003Z,6.19
2022-12-08T15:45:59.138Z,5.89
2022-12-08T15:48:30.401Z,5.75
2022-12-08T15:50:58.670Z,5.87
2022-12-08T15:53:26.160Z,5.85
2022-12-08T15:56:25.929Z,5.53
2022-12-08T15:58:57.944Z,6.12
2022-12-08T16:01:26.778Z,6.38
2022-12-08T16:04:36.891Z,6.20
2022-12-08T16:09:40.725Z,5.85
2022-12-08T16:13:26.869Z,5.95
2022-12-08T16:15:50.101Z,5.91
2022-12-08T16:18:26.812Z,5.72
2022-12-08T16:23:45.003Z,5.92
2022-12-08T16:26:28.566Z,6.08
2022-12-08T16:29:04.104Z,5.66
2022-12-08T16:31:33.715Z,5.98
2022-12-08T16:34:01.419Z,5.29
2022-12-08T16:36:28.940Z,5.57
2022-12-08T16:38:56.481Z,5.38
2022-12-08T16:41:42.390Z,5.50
2022-12-08T16:44:10.365Z,5.78
2022-12-08T16:46:37.808Z,5.84
2022-12-08T16:49:08.565Z,6.00
2022-12-08T16:51:36.120Z,5.56
2022-12-08T16:54:03.632Z,5.66
2022-12-08T16:56:33.498Z,5.80
2022-12-08T16:59:02.316Z,5.89
2022-12-08T17:01:30.487Z,6.03
2022-12-08T17:04:29.686Z,6.34
2022-12-08T17:06:46.430Z,6.02
2022-12-08T17:09:14.092Z,5.97
2022-12-08T17:11:43.552Z,5.69
2022-12-08T17:14:13.296Z,5.57
2022-12-08T17:16:42.292Z,5.65
2022-12-08T17:19:12.189Z,5.53
2022-12-08T17:21:39.673Z,5.41
2022-12-08T17:24:07.325Z,5.25
2022-12-08T17:26:35.404Z,5.57
2022-12-08T17:29:04.495Z,5.87
2022-12-08T17:31:33.091Z,5.78
2022-12-08T17:34:02.934Z,5.65
2022-12-08T17:36:30.445Z,5.55
2022-12-08T17:38:59.706Z,5.47
2022-12-08T17:41:27.658Z,5.48
2022-12-08T17:43:55.691Z,5.50
2022-12-08T17:46:24.341Z,5.82
2022-12-08T17:48:52.262Z,6.09
2022-12-08T17:51:19.988Z,5.84
2022-12-08T17:53:47.834Z,5.60
2022-12-08T17:56:19.075Z,6.01
2022-12-08T17:58:52.644Z,5.53
2022-12-08T18:01:23.496Z,5.78
2022-12-08T18:03:51.717Z,5.50
2022-12-08T18:06:19.616Z,5.91
2022-12-08T18:08:47.686Z,5.75
2022-12-08T18:11:20.632Z,5.84
2022-12-08T18:13:49.970Z,5.64
2022-12-08T18:16:19.753Z,5.70
2022-12-08T18:18:47.672Z,5.60
2022-12-08T18:21:22.855Z,5.68
2022-12-08T18:23:51.251Z,5.52
2022-12-08T18:26:19.052Z,6.12
2022-12-08T18:28:48.328Z,5.68
2022-12-08T18:31:19.521Z,5.46
2022-12-08T18:33:48.478Z,5.52
2022-12-08T18:36:19.132Z,5.48
2022-12-08T18:38:50.503Z,6.03
2022-12-08T18:41:23.332Z,5.98
2022-12-08T18:43:51.644Z,5.94
2022-12-08T18:46:19.442Z,6.31
2022-12-08T18:48:48.850Z,6.23
2022-12-08T18:51:21.575Z,6.16
2022-12-08T18:53:51.880Z,5.92
2022-12-08T18:56:22.164Z,5.63
2022-12-08T18:58:49.772Z,5.68
2022-12-08T19:01:17.872Z,5.84
2022-12-08T19:04:04.747Z,5.92
2022-12-08T19:06:33.400Z,6.05
2022-12-08T19:09:03.249Z,5.68
2022-12-08T19:11:30.813Z,5.97
2022-12-08T19:13:58.477Z,5.93
2022-12-08T19:16:26.352Z,5.95
2022-12-08T19:18:54.039Z,5.76
2022-12-08T19:21:23.950Z,5.91
2022-12-08T19:23:52.685Z,5.95
2022-12-08T19:26:20.163Z,6.08
2022-12-08T19:28:48.159Z,6.26
2022-12-08T19:31:16.438Z,6.08
2022-12-08T19:33:44.367Z,4.77
2022-12-08T19:36:16.857Z,4.51
2022-12-08T19:39:03.219Z,4.19
2022-12-08T19:41:50.468Z,4.04
2022-12-08T19:44:45.521Z,3.98
2022-12-08T19:47:13.475Z,4.23
2022-12-08T19:49:41.414Z,4.20
2022-12-08T19:52:09.691Z,4.25
2022-12-08T19:54:38.208Z,4.29
2022-12-08T19:57:06.036Z,4.22
2022-12-08T19:59:34.008Z,4.36
2022-12-08T20:02:02.025Z,4.24
2022-12-08T20:04:29.578Z,4.30
2022-12-08T20:06:57.719Z,4.48
2022-12-08T20:09:25.828Z,4.49
2022-12-08T20:11:54.787Z,4.20
2022-12-08T20:14:23.321Z,4.21
2022-12-08T20:16:51.363Z,4.32
2022-12-08T20:19:20.335Z,4.24
2022-12-08T20:21:48.838Z,4.14
2022-12-08T20:24:17.165Z,4.31
2022-12-08T20:26:44.956Z,4.25
2022-12-08T20:29:14.787Z,4.20
2022-12-08T20:31:43.265Z,4.37
2022-12-08T20:34:18.856Z,4.39
2022-12-08T20:36:49.437Z,4.26
2022-12-08T20:39:18.729Z,4.25
2022-12-08T20:41:47.945Z,4.31
2022-12-08T20:44:15.701Z,4.13
2022-12-08T20:46:49.081Z,4.15
2022-12-08T20:49:18.177Z,3.83
2022-12-08T20:51:46.615Z,3.96
2022-12-08T20:54:14.190Z,4.03
2022-12-08T20:56:46.592Z,3.88
2022-12-08T20:59:18.170Z,4.00
2022-12-08T21:01:46.280Z,4.37
2022-12-08T21:04:14.278Z,3.91
2022-12-08T21:06:42.173Z,4.13
2022-12-08T21:09:10.580Z,4.28
2022-12-08T21:11:38.784Z,4.47
2022-12-08T21:14:06.849Z,4.36
2022-12-08T21:16:34.689Z,4.46
2022-12-08T21:19:02.404Z,4.53
2022-12-08T21:21:30.070Z,4.02
2022-12-08T21:23:57.954Z,4.19
2022-12-08T21:26:26.415Z,4.34
2022-12-08T21:28:58.504Z,4.16
2022-12-08T21:31:29.377Z,4.22
2022-12-08T21:33:58.249Z,3.93
2022-12-08T21:36:25.712Z,4.15
2022-12-08T21:39:00.694Z,4.31
2022-12-08T21:41:48.313Z,4.32
2022-12-08T21:44:20.141Z,4.24
2022-12-08T21:46:47.910Z,4.33
2022-12-08T21:49:16.370Z,4.38
2022-12-08T21:51:44.104Z,4.39
2022-12-08T21:54:18.363Z,4.49
2022-12-08T21:56:47.723Z,4.57
2022-12-08T21:59:16.399Z,4.50
2022-12-08T22:01:44.510Z,4.29
2022-12-08T22:04:15.955Z,4.24
2022-12-08T22:06:43.584Z,4.28
2022-12-08T22:09:13.482Z,4.26
2022-12-08T22:11:43.195Z,4.29
2022-12-08T22:14:14.814Z,4.35
2022-12-08T22:16:43.983Z,4.44
2022-12-08T22:19:12.647Z,5.39
2022-12-08T22:21:41.703Z,5.79
2022-12-08T22:24:09.508Z,6.05
2022-12-08T22:26:37.114Z,5.58
2022-12-08T22:29:04.835Z,5.16
2022-12-08T22:31:32.915Z,4.46
2022-12-08T22:34:00.474Z,3.90
2022-12-08T22:36:28.269Z,4.02
2022-12-08T22:38:56.001Z,4.49
2022-12-08T22:41:23.844Z,4.18
2022-12-08T22:43:51.421Z,4.38
2022-12-08T22:46:24.959Z,4.33
2022-12-08T22:48:54.502Z,4.34
2022-12-08T22:51:22.128Z,4.53
2022-12-08T22:53:50.383Z,4.53
2022-12-08T22:56:19.307Z,4.30
2022-12-08T22:58:47.304Z,4.28
2022-12-08T23:01:29.580Z,4.65
2022-12-08T23:03:58.406Z,4.45
2022-12-08T23:06:30.314Z,4.07
2022-12-08T23:08:59.212Z,4.16
2022-12-08T23:11:29.712Z,4.40
2022-12-08T23:14:01.056Z,4.18
2022-12-08T23:16:29.034Z,4.24
2022-12-08T23:18:56.999Z,4.09
2022-12-08T23:21:24.466Z,4.32
2022-12-08T23:23:52.024Z,4.09
2022-12-08T23:26:27.087Z,4.02
2022-12-08T23:28:56.839Z,4.03
2022-12-08T23:31:25.552Z,3.94
2022-12-08T23:33:53.451Z,4.21
2022-12-08T23:36:23.087Z,4.43
2022-12-08T23:38:50.573Z,4.06
2022-12-08T23:41:18.021Z,5.15
2022-12-08T23:43:47.385Z,4.32
2022-12-08T23:46:16.119Z,4.18
2022-12-08T23:48:44.328Z,4.31
2022-12-08T23:51:12.622Z,4.15
2022-12-08T23:53:40.712Z,4.33
2022-12-08T23:56:11.171Z,3.92
2022-12-08T23:58:39.515Z,3.83
